createdAt,value
2023-02-13T00:00:19.456Z,99.18
2023-02-13T00:01:42.324Z,99.07
2023-02-13T00:02:45.306Z,99.09
2023-02-13T00:03:48.265Z,99.11
2023-02-13T00:04:51.124Z,99.24
2023-02-13T00:05:54.176Z,99.15
2023-02-13T00:06:57.122Z,99.27
2023-02-13T00:07:59.959Z,99.27
2023-02-13T00:09:03.743Z,99.22
2023-02-13T00:10:08.938Z,99.07
2023-02-13T00:11:12.864Z,99.11
2023-02-13T00:12:15.675Z,98.99
2023-02-13T00:13:18.572Z,99.07
2023-02-13T00:14:21.556Z,99.11
2023-02-13T00:15:24.439Z,99.14
2023-02-13T00:16:27.367Z,99.14
2023-02-13T00:17:30.566Z,99.19
2023-02-13T00:18:36.746Z,99.06
2023-02-13T00:19:40.041Z,99.23
2023-02-13T00:20:43.248Z,99.15
2023-02-13T00:21:46.081Z,99.16
2023-02-13T00:22:49.047Z,99.10
2023-02-13T00:23:51.876Z,99.02
2023-02-13T00:24:54.740Z,99.18
2023-02-13T00:25:58.495Z,98.96
2023-02-13T00:27:01.934Z,99.07
2023-02-13T00:28:04.910Z,99.19
2023-02-13T00:29:08.514Z,99.17
2023-02-13T00:30:11.988Z,99.17
2023-02-13T00:31:17.638Z,99.18
2023-02-13T00:32:20.637Z,99.18
2023-02-13T00:33:23.542Z,99.23
2023-02-13T00:34:26.417Z,99.19
2023-02-13T00:35:29.497Z,99.19
2023-02-13T00:36:32.445Z,99.26
2023-02-13T00:37:35.479Z,99.30
2023-02-13T00:38:40.354Z,99.20
2023-02-13T00:39:43.269Z,99.29
2023-02-13T00:40:46.212Z,99.03
2023-02-13T00:41:49.111Z,99.24
2023-02-13T00:42:52.014Z,99.14
2023-02-13T00:43:54.901Z,99.22
2023-02-13T00:44:58.802Z,99.20
2023-02-13T00:46:02.506Z,99.26
2023-02-13T00:47:05.437Z,99.24
2023-02-13T00:48:08.337Z,99.20
2023-02-13T00:49:11.937Z,99.22
2023-02-13T00:50:14.868Z,99.21
2023-02-13T00:51:17.786Z,99.31
2023-02-13T00:52:20.656Z,99.36
2023-02-13T00:53:25.469Z,99.29
2023-02-13T00:54:28.320Z,99.36
2023-02-13T00:55:31.376Z,99.33
2023-02-13T00:56:34.948Z,99.31
2023-02-13T00:57:37.925Z,99.40
2023-02-13T00:58:40.907Z,99.47
2023-02-13T00:59:43.775Z,99.34
2023-02-13T01:00:47.675Z,99.30
2023-02-13T01:01:50.623Z,99.38
2023-02-13T01:02:53.567Z,99.33
2023-02-13T01:03:56.652Z,99.23
2023-02-13T01:04:59.509Z,99.20
2023-02-13T01:06:02.363Z,99.21
2023-02-13T01:07:05.328Z,99.19
2023-02-13T01:08:09.049Z,99.24
2023-02-13T01:09:12.190Z,99.30
2023-02-13T01:10:15.136Z,99.28
2023-02-13T01:11:19.462Z,99.38
2023-02-13T01:12:22.424Z,99.42
2023-02-13T01:13:25.827Z,99.42
2023-02-13T01:14:30.006Z,99.46
2023-02-13T01:15:33.586Z,99.41
2023-02-13T01:16:36.776Z,99.28
2023-02-13T01:17:39.902Z,99.52
2023-02-13T01:18:42.802Z,99.41
2023-02-13T01:19:45.673Z,99.45
2023-02-13T01:21:23.446Z,99.30
2023-02-13T01:22:29.183Z,99.35
2023-02-13T01:23:35.090Z,99.44
2023-02-13T01:24:37.965Z,99.48
2023-02-13T01:25:43.677Z,99.62
2023-02-13T01:26:46.625Z,99.65
2023-02-13T01:27:49.576Z,99.53
2023-02-13T01:28:54.818Z,99.51
2023-02-13T01:29:57.695Z,99.59
2023-02-13T01:31:01.275Z,99.49
2023-02-13T01:32:05.319Z,99.50
2023-02-13T01:33:12.409Z,99.46
2023-02-13T01:34:15.388Z,99.47
2023-02-13T01:35:18.432Z,99.49
2023-02-13T01:36:21.398Z,99.49
2023-02-13T01:37:24.259Z,99.51
2023-02-13T01:38:28.316Z,99.54
2023-02-13T01:39:31.359Z,99.61
2023-02-13T01:40:34.232Z,99.55
2023-02-13T01:41:37.103Z,99.67
2023-02-13T01:42:40.566Z,99.62
2023-02-13T01:43:53.695Z,99.56
2023-02-13T01:45:17.555Z,99.66
2023-02-13T01:46:29.122Z,99.73
2023-02-13T01:47:40.532Z,99.61
2023-02-13T01:48:43.739Z,99.65
2023-02-13T01:49:47.999Z,99.60
2023-02-13T01:50:53.531Z,99.68
2023-02-13T01:51:57.096Z,99.67
2023-02-13T01:53:10.981Z,99.63
2023-02-13T01:54:26.236Z,99.52
2023-02-13T01:55:31.577Z,99.69
2023-02-13T01:56:46.008Z,99.58
2023-02-13T01:57:55.002Z,99.63
2023-02-13T01:59:02.727Z,99.59
2023-02-13T02:00:09.492Z,99.62
2023-02-13T02:01:24.293Z,99.68
2023-02-13T02:02:29.242Z,99.67
2023-02-13T02:03:40.005Z,99.63
2023-02-13T02:04:48.413Z,99.74
2023-02-13T02:05:56.544Z,99.61
2023-02-13T02:07:07.222Z,99.52
2023-02-13T02:08:14.316Z,99.61
2023-02-13T02:09:20.684Z,99.60
2023-02-13T02:10:24.391Z,99.62
2023-02-13T02:11:36.190Z,99.56
2023-02-13T02:12:55.602Z,99.65
2023-02-13T02:13:59.215Z,99.58
2023-02-13T02:15:09.156Z,99.58
2023-02-13T02:16:13.666Z,99.56
2023-02-13T02:17:17.827Z,99.49
2023-02-13T02:18:23.415Z,99.62
2023-02-13T02:19:49.633Z,99.62
2023-02-13T02:21:30.988Z,99.66
2023-02-13T02:23:03.361Z,99.71
2023-02-13T02:24:40.673Z,99.79
2023-02-13T02:26:02.532Z,99.81
2023-02-13T02:27:19.039Z,99.71
2023-02-13T02:28:31.582Z,99.67
2023-02-13T02:29:49.295Z,99.64
2023-02-13T02:31:10.276Z,99.74
2023-02-13T02:32:19.048Z,99.74
2023-02-13T02:33:40.555Z,99.75
2023-02-13T02:35:02.752Z,99.74
2023-02-13T02:36:36.945Z,99.68
2023-02-13T02:38:00.591Z,99.64
2023-02-13T02:39:21.953Z,99.77
2023-02-13T02:40:33.847Z,99.68
2023-02-13T02:41:45.592Z,99.73
2023-02-13T02:43:04.605Z,99.75
2023-02-13T02:44:18.568Z,99.72
2023-02-13T02:45:28.885Z,99.74
2023-02-13T02:46:39.650Z,99.65
2023-02-13T02:48:11.236Z,99.77
2023-02-13T02:49:46.550Z,99.74
2023-02-13T02:51:01.611Z,99.79
2023-02-13T02:52:44.886Z,99.73
2023-02-13T02:53:51.599Z,99.66
2023-02-13T02:55:07.277Z,99.75
2023-02-13T02:56:40.411Z,99.61
2023-02-13T02:58:20.002Z,99.68
2023-02-13T02:59:44.101Z,99.74
2023-02-13T03:01:09.122Z,99.69
2023-02-13T03:02:32.082Z,99.68
2023-02-13T03:03:54.939Z,99.80
2023-02-13T03:05:20.046Z,99.81
2023-02-13T03:06:30.105Z,99.75
2023-02-13T03:07:33.565Z,99.65
2023-02-13T03:09:03.469Z,99.68
2023-02-13T03:10:28.805Z,99.62
2023-02-13T03:11:51.087Z,99.78
2023-02-13T03:13:17.534Z,99.78
2023-02-13T03:14:23.164Z,99.76
2023-02-13T03:15:27.440Z,99.76
2023-02-13T03:16:49.101Z,99.76
2023-02-13T03:18:11.258Z,99.76
2023-02-13T03:19:46.981Z,99.77
2023-02-13T03:21:17.732Z,99.63
2023-02-13T03:22:35.864Z,99.56
2023-02-13T03:23:48.657Z,99.68
2023-02-13T03:25:03.512Z,99.70
2023-02-13T03:26:46.316Z,99.75
2023-02-13T03:28:25.739Z,99.75
2023-02-13T03:30:00.503Z,99.82
2023-02-13T03:31:46.719Z,99.88
2023-02-13T03:33:26.325Z,99.76
2023-02-13T03:34:56.853Z,99.88
2023-02-13T03:36:35.193Z,99.90
2023-02-13T03:37:56.569Z,99.75
2023-02-13T03:39:24.065Z,99.72
2023-02-13T03:40:36.646Z,99.87
2023-02-13T03:41:50.939Z,99.86
2023-02-13T03:43:02.026Z,99.93
2023-02-13T03:44:18.327Z,99.89
2023-02-13T03:45:47.980Z,99.79
2023-02-13T03:46:53.641Z,99.85
2023-02-13T03:47:58.905Z,99.85
2023-02-13T03:49:25.192Z,99.85
2023-02-13T03:50:28.949Z,99.83
2023-02-13T03:51:45.060Z,99.85
2023-02-13T03:52:47.853Z,99.84
2023-02-13T03:53:57.441Z,99.87
2023-02-13T03:55:23.755Z,99.85
2023-02-13T03:56:48.035Z,99.83
2023-02-13T03:58:15.106Z,99.90
2023-02-13T03:59:30.333Z,99.97
2023-02-13T04:00:40.267Z,99.88
2023-02-13T04:02:13.668Z,99.89
2023-02-13T04:03:25.643Z,99.80
2023-02-13T04:04:39.683Z,99.91
2023-02-13T04:05:47.163Z,99.91
2023-02-13T04:07:07.158Z,99.94
2023-02-13T04:08:10.437Z,99.95
2023-02-13T04:09:13.390Z,99.96
2023-02-13T04:10:18.398Z,99.88
2023-02-13T04:11:30.629Z,99.98
2023-02-13T04:12:40.704Z,99.99
2023-02-13T04:14:21.959Z,99.87
2023-02-13T04:15:50.365Z,99.95
2023-02-13T04:17:03.673Z,99.88
2023-02-13T04:18:20.952Z,99.89
2023-02-13T04:19:26.600Z,99.83
2023-02-13T04:20:32.225Z,99.88
2023-02-13T04:21:37.911Z,99.78
2023-02-13T04:22:48.244Z,99.83
2023-02-13T04:23:51.114Z,99.81
2023-02-13T04:24:54.166Z,99.75
2023-02-13T04:25:57.837Z,99.70
2023-02-13T04:27:00.875Z,99.81
2023-02-13T04:28:04.221Z,99.83
2023-02-13T04:29:08.524Z,99.70
2023-02-13T04:30:12.186Z,99.81
2023-02-13T04:31:16.112Z,99.82
2023-02-13T04:32:19.117Z,99.82
2023-02-13T04:33:22.064Z,99.86
2023-02-13T04:34:25.228Z,99.83
2023-02-13T04:35:28.479Z,99.82
2023-02-13T04:36:31.556Z,99.90
2023-02-13T04:37:34.448Z,99.79
2023-02-13T04:38:37.345Z,99.84
2023-02-13T04:39:40.212Z,99.71
2023-02-13T04:40:43.045Z,99.76
2023-02-13T04:41:45.887Z,99.68
2023-02-13T04:42:49.593Z,99.80
2023-02-13T04:43:52.631Z,99.77
2023-02-13T04:44:55.460Z,99.80
2023-02-13T04:45:58.400Z,99.77
2023-02-13T04:47:01.323Z,99.77
2023-02-13T04:48:04.305Z,99.72
2023-02-13T04:49:07.509Z,99.75
2023-02-13T04:50:10.556Z,99.60
2023-02-13T04:51:13.511Z,99.77
2023-02-13T04:52:16.456Z,99.61
2023-02-13T04:53:19.362Z,99.75
2023-02-13T04:54:22.205Z,99.71
2023-02-13T04:55:26.422Z,99.72
2023-02-13T04:56:29.344Z,99.64
2023-02-13T04:57:32.230Z,99.59
2023-02-13T04:58:35.168Z,99.78
2023-02-13T04:59:38.050Z,99.68
2023-02-13T05:00:41.135Z,99.64
2023-02-13T05:01:44.201Z,99.74
2023-02-13T05:02:47.266Z,99.70
2023-02-13T05:03:50.214Z,99.83
2023-02-13T05:04:53.081Z,99.69
2023-02-13T05:05:55.929Z,99.85
2023-02-13T05:06:58.911Z,99.69
2023-02-13T05:08:02.388Z,99.74
2023-02-13T05:09:05.318Z,99.75
2023-02-13T05:10:09.904Z,99.72
2023-02-13T05:11:12.801Z,99.81
2023-02-13T05:12:15.860Z,99.85
2023-02-13T05:13:21.723Z,99.74
2023-02-13T05:14:24.617Z,99.82
2023-02-13T05:15:27.608Z,99.69
2023-02-13T05:16:30.517Z,99.84
2023-02-13T05:17:33.472Z,99.65
2023-02-13T05:18:36.428Z,99.70
2023-02-13T05:19:39.300Z,99.76
2023-02-13T05:20:42.657Z,99.62
2023-02-13T05:22:04.589Z,99.52
2023-02-13T05:23:22.751Z,99.61
2023-02-13T05:24:25.834Z,99.73
2023-02-13T05:25:28.679Z,99.68
2023-02-13T05:26:31.640Z,99.69
2023-02-13T05:27:34.488Z,99.55
2023-02-13T05:28:56.494Z,99.70
2023-02-13T05:29:59.678Z,99.56
2023-02-13T05:31:03.020Z,99.68
2023-02-13T05:32:06.183Z,99.65
2023-02-13T05:33:09.084Z,99.84
2023-02-13T05:34:11.960Z,99.76
2023-02-13T05:35:15.017Z,99.79
2023-02-13T05:36:17.995Z,99.68
2023-02-13T05:37:20.854Z,99.70
2023-02-13T05:38:23.814Z,99.70
2023-02-13T05:39:26.712Z,99.55
2023-02-13T05:40:29.570Z,99.66
2023-02-13T05:41:32.600Z,99.66
2023-02-13T05:42:35.520Z,99.55
2023-02-13T05:43:38.331Z,99.67
2023-02-13T05:44:41.170Z,99.64
2023-02-13T05:45:44.062Z,99.61
2023-02-13T05:46:48.247Z,99.65
2023-02-13T05:47:51.177Z,99.60
2023-02-13T05:48:54.087Z,99.71
2023-02-13T05:49:56.917Z,99.65
2023-02-13T05:50:59.926Z,99.58
2023-02-13T05:52:02.850Z,99.70
2023-02-13T05:53:05.690Z,99.65
2023-02-13T05:54:09.063Z,99.66
2023-02-13T05:55:11.944Z,99.59
2023-02-13T05:56:14.803Z,99.56
2023-02-13T05:57:17.650Z,99.59
2023-02-13T05:58:21.899Z,99.61
2023-02-13T05:59:24.722Z,99.50
2023-02-13T06:00:27.653Z,99.53
2023-02-13T06:01:30.526Z,99.48
2023-02-13T06:02:33.603Z,99.64
2023-02-13T06:03:36.565Z,99.51
2023-02-13T06:04:39.903Z,99.67
2023-02-13T06:05:42.739Z,99.73
2023-02-13T06:06:45.673Z,99.55
2023-02-13T06:07:48.500Z,99.51
2023-02-13T06:08:52.018Z,99.52
2023-02-13T06:09:54.887Z,99.53
2023-02-13T06:10:58.022Z,99.55
2023-02-13T06:12:01.383Z,99.50
2023-02-13T06:13:04.251Z,99.53
2023-02-13T06:14:07.143Z,99.45
2023-02-13T06:15:10.070Z,99.51
2023-02-13T06:16:13.156Z,99.49
2023-02-13T06:17:16.032Z,99.51
2023-02-13T06:18:19.064Z,99.47
2023-02-13T06:19:21.951Z,99.44
2023-02-13T06:20:24.821Z,99.52
2023-02-13T06:21:27.916Z,99.36
2023-02-13T06:22:30.930Z,99.36
2023-02-13T06:23:33.910Z,99.47
2023-02-13T06:24:36.731Z,99.39
2023-02-13T06:25:40.009Z,99.50
2023-02-13T06:26:42.956Z,99.47
2023-02-13T06:27:46.692Z,99.46
2023-02-13T06:28:49.978Z,99.35
2023-02-13T06:29:52.871Z,99.39
2023-02-13T06:30:56.311Z,99.41
2023-02-13T06:32:00.013Z,99.41
2023-02-13T06:33:03.010Z,99.36
2023-02-13T06:34:05.873Z,99.34
2023-02-13T06:35:09.314Z,99.36
2023-02-13T06:36:12.163Z,99.38
2023-02-13T06:37:15.005Z,99.34
2023-02-13T06:38:19.300Z,99.47
2023-02-13T06:39:22.179Z,99.42
2023-02-13T06:40:25.165Z,99.27
2023-02-13T06:41:28.051Z,99.43
2023-02-13T06:42:30.949Z,99.43
2023-02-13T06:43:33.828Z,99.50
2023-02-13T06:44:36.693Z,99.32
2023-02-13T06:45:39.665Z,99.31
2023-02-13T06:46:42.656Z,99.33
2023-02-13T06:47:48.110Z,99.42
2023-02-13T06:48:51.008Z,99.33
2023-02-13T06:49:53.830Z,99.39
2023-02-13T06:50:56.973Z,99.45
2023-02-13T06:52:00.105Z,99.44
2023-02-13T06:53:03.188Z,99.39
2023-02-13T06:54:06.391Z,99.39
2023-02-13T06:55:09.213Z,99.46
2023-02-13T06:56:12.109Z,99.42
2023-02-13T06:57:15.787Z,99.40
2023-02-13T06:58:19.875Z,99.52
2023-02-13T06:59:22.758Z,99.56
2023-02-13T07:00:27.189Z,99.49
2023-02-13T07:01:30.282Z,99.58
2023-02-13T07:02:33.275Z,99.43
2023-02-13T07:03:36.183Z,99.57
2023-02-13T07:04:39.539Z,99.49
2023-02-13T07:05:44.008Z,99.53
2023-02-13T07:06:47.443Z,99.63
2023-02-13T07:07:50.250Z,99.79
2023-02-13T07:08:56.105Z,99.70
2023-02-13T07:09:59.038Z,99.74
2023-02-13T07:11:01.946Z,99.83
2023-02-13T07:12:05.745Z,99.79
2023-02-13T07:13:10.077Z,99.76
2023-02-13T07:14:13.009Z,99.70
2023-02-13T07:15:15.960Z,99.77
2023-02-13T07:16:19.189Z,99.79
2023-02-13T07:17:22.104Z,99.70
2023-02-13T07:18:24.981Z,99.73
2023-02-13T07:19:27.869Z,99.72
2023-02-13T07:20:30.928Z,99.66
2023-02-13T07:21:33.994Z,99.75
2023-02-13T07:22:36.912Z,99.61
2023-02-13T07:23:40.138Z,99.55
2023-02-13T07:24:43.051Z,99.62
2023-02-13T07:25:45.906Z,99.63
2023-02-13T07:26:48.742Z,99.76
2023-02-13T07:27:52.159Z,99.58
2023-02-13T07:29:10.239Z,99.82
2023-02-13T07:30:14.533Z,99.69
2023-02-13T07:31:17.674Z,99.93
2023-02-13T07:32:20.694Z,99.88
2023-02-13T07:33:24.389Z,99.97
2023-02-13T07:34:27.370Z,99.94
2023-02-13T07:35:30.488Z,99.84
2023-02-13T07:36:33.723Z,99.83
2023-02-13T07:37:36.591Z,99.71
2023-02-13T07:38:39.432Z,99.76
2023-02-13T07:39:42.280Z,99.63
2023-02-13T07:40:45.585Z,99.64
2023-02-13T07:41:48.499Z,99.54
2023-02-13T07:42:52.439Z,99.51
2023-02-13T07:43:55.328Z,99.50
2023-02-13T07:44:58.877Z,99.62
2023-02-13T07:46:04.385Z,99.69
2023-02-13T07:47:07.380Z,99.64
2023-02-13T07:48:10.270Z,99.60
2023-02-13T07:49:13.470Z,99.61
2023-02-13T07:50:16.353Z,99.54
2023-02-13T07:51:19.355Z,99.69
2023-02-13T07:52:22.272Z,99.45
2023-02-13T07:53:25.519Z,99.69
2023-02-13T07:54:28.477Z,99.68
2023-02-13T07:55:32.784Z,99.70
2023-02-13T07:56:35.834Z,99.67
2023-02-13T07:57:38.774Z,99.82
2023-02-13T07:58:41.722Z,99.77
2023-02-13T07:59:45.454Z,99.82
2023-02-13T08:00:48.571Z,99.78
2023-02-13T08:01:51.692Z,99.61
2023-02-13T08:02:54.691Z,99.42
2023-02-13T08:03:57.722Z,99.55
2023-02-13T08:05:00.585Z,99.36
2023-02-13T08:06:04.408Z,99.39
2023-02-13T08:07:07.763Z,99.24
2023-02-13T08:08:10.615Z,99.38
2023-02-13T08:09:41.032Z,99.18
2023-02-13T08:11:02.728Z,99.38
2023-02-13T08:12:08.512Z,99.18
2023-02-13T08:13:14.030Z,99.11
2023-02-13T08:14:16.926Z,99.14
2023-02-13T08:15:19.853Z,99.17
2023-02-13T08:16:23.075Z,99.11
2023-02-13T08:17:25.979Z,99.13
2023-02-13T08:18:28.946Z,99.13
2023-02-13T08:19:31.859Z,99.19
2023-02-13T08:20:34.959Z,99.16
2023-02-13T08:21:38.360Z,99.11
2023-02-13T08:22:41.718Z,99.19
2023-02-13T08:23:44.723Z,99.21
2023-02-13T08:24:47.652Z,99.25
2023-02-13T08:25:50.543Z,99.21
2023-02-13T08:26:53.423Z,99.13
2023-02-13T08:27:56.603Z,99.03
2023-02-13T08:28:59.940Z,98.97
2023-02-13T08:30:04.415Z,99.14
2023-02-13T08:31:12.280Z,99.04
2023-02-13T08:32:15.620Z,99.03
2023-02-13T08:33:18.874Z,99.09
2023-02-13T08:34:21.717Z,99.14
2023-02-13T08:35:26.968Z,99.20
2023-02-13T08:36:31.080Z,99.11
2023-02-13T08:37:34.118Z,98.94
2023-02-13T08:38:37.048Z,98.99
2023-02-13T08:39:39.929Z,98.86
2023-02-13T08:40:42.783Z,98.99
2023-02-13T08:41:45.649Z,98.78
2023-02-13T08:42:48.491Z,98.57
2023-02-13T08:43:51.461Z,98.35
2023-02-13T08:44:54.365Z,98.14
2023-02-13T08:46:01.197Z,98.24
2023-02-13T08:47:04.273Z,98.43
2023-02-13T08:48:07.674Z,98.74
2023-02-13T08:49:10.566Z,98.71
2023-02-13T08:50:13.402Z,98.38
2023-02-13T08:51:16.286Z,98.20
2023-02-13T08:52:19.158Z,97.82
2023-02-13T08:53:23.352Z,97.65
2023-02-13T08:54:26.318Z,97.46
2023-02-13T08:55:31.559Z,97.50
2023-02-13T08:56:35.184Z,97.45
2023-02-13T08:57:38.094Z,97.39
2023-02-13T08:58:40.967Z,97.47
2023-02-13T08:59:44.323Z,97.09
2023-02-13T09:00:47.655Z,97.00
2023-02-13T09:01:50.637Z,97.02
2023-02-13T09:02:53.625Z,96.79
2023-02-13T09:03:56.593Z,96.80
2023-02-13T09:04:59.470Z,96.78
2023-02-13T09:06:03.748Z,96.76
2023-02-13T09:07:06.907Z,96.71
2023-02-13T09:08:11.940Z,96.84
2023-02-13T09:09:16.112Z,96.70
2023-02-13T09:10:19.179Z,96.68
2023-02-13T09:11:23.617Z,96.65
2023-02-13T09:12:26.599Z,96.80
2023-02-13T09:13:34.585Z,96.87
2023-02-13T09:14:39.396Z,96.97
2023-02-13T09:15:43.108Z,96.90
2023-02-13T09:16:45.988Z,96.98
2023-02-13T09:17:48.949Z,96.86
2023-02-13T09:18:52.768Z,96.89
2023-02-13T09:19:55.767Z,97.04
2023-02-13T09:21:04.726Z,97.03
2023-02-13T09:22:07.610Z,96.98
2023-02-13T09:23:10.546Z,97.02
2023-02-13T09:24:13.464Z,96.97
2023-02-13T09:25:16.407Z,97.10
2023-02-13T09:26:20.634Z,97.07
2023-02-13T09:27:23.718Z,97.04
2023-02-13T09:28:26.754Z,97.13
2023-02-13T09:29:31.835Z,97.16
2023-02-13T09:30:34.774Z,97.24
2023-02-13T09:31:37.802Z,97.14
2023-02-13T09:32:41.655Z,97.20
2023-02-13T09:33:46.204Z,97.22
2023-02-13T09:34:49.159Z,97.26
2023-02-13T09:35:52.226Z,97.38
2023-02-13T09:36:55.439Z,97.40
2023-02-13T09:38:00.739Z,97.16
2023-02-13T09:39:04.334Z,97.36
2023-02-13T09:40:29.160Z,97.42
2023-02-13T09:41:42.496Z,97.41
2023-02-13T09:42:46.563Z,97.53
2023-02-13T09:43:59.379Z,97.56
2023-02-13T09:45:06.428Z,97.46
2023-02-13T09:46:19.201Z,97.50
2023-02-13T09:47:31.413Z,97.42
2023-02-13T09:48:38.411Z,97.45
2023-02-13T09:49:49.669Z,97.48
2023-02-13T09:50:52.766Z,97.57
2023-02-13T09:51:57.757Z,97.65
2023-02-13T09:53:02.280Z,97.47
2023-02-13T09:54:07.540Z,97.44
2023-02-13T09:55:38.272Z,97.35
2023-02-13T09:56:55.360Z,97.40
2023-02-13T09:58:36.584Z,97.49
2023-02-13T09:59:58.122Z,97.29
2023-02-13T10:01:04.646Z,97.34
2023-02-13T10:02:32.248Z,97.25
2023-02-13T10:03:43.932Z,97.44
2023-02-13T10:04:50.950Z,97.41
2023-02-13T10:06:15.623Z,97.41
2023-02-13T10:07:35.864Z,97.49
2023-02-13T10:08:57.237Z,97.55
2023-02-13T10:10:20.194Z,97.67
2023-02-13T10:11:51.068Z,97.90
2023-02-13T10:13:23.711Z,98.08
2023-02-13T10:14:35.689Z,98.16
2023-02-13T10:15:52.054Z,98.21
2023-02-13T10:17:32.047Z,98.11
2023-02-13T10:18:53.657Z,98.11
2023-02-13T10:20:08.835Z,98.14
2023-02-13T10:21:14.067Z,98.10
2023-02-13T10:22:34.160Z,98.00
2023-02-13T10:23:44.686Z,98.02
2023-02-13T10:25:09.216Z,98.03
2023-02-13T10:26:17.767Z,97.91
2023-02-13T10:27:23.978Z,98.02
2023-02-13T10:28:42.549Z,97.98
2023-02-13T10:30:07.122Z,97.81
2023-02-13T10:31:17.895Z,97.69
2023-02-13T10:32:25.829Z,97.50
2023-02-13T10:33:34.948Z,97.40
2023-02-13T10:34:44.947Z,97.43
2023-02-13T10:36:15.263Z,97.46
2023-02-13T10:37:21.846Z,97.48
2023-02-13T10:38:25.656Z,97.52
2023-02-13T10:39:31.120Z,97.52
2023-02-13T10:40:40.560Z,97.78
2023-02-13T10:41:52.786Z,97.57
2023-02-13T10:43:10.202Z,97.80
2023-02-13T10:44:34.432Z,97.93
2023-02-13T10:45:43.196Z,97.91
2023-02-13T10:47:11.857Z,97.89
2023-02-13T10:48:35.864Z,98.02
2023-02-13T10:49:57.241Z,98.14
2023-02-13T10:51:36.069Z,98.13
2023-02-13T10:52:50.367Z,98.06
2023-02-13T10:54:18.130Z,98.07
2023-02-13T10:55:23.792Z,98.09
2023-02-13T10:56:44.358Z,98.36
2023-02-13T10:58:08.676Z,98.39
2023-02-13T10:59:39.046Z,98.40
2023-02-13T11:00:56.224Z,98.54
2023-02-13T11:02:20.730Z,98.79
2023-02-13T11:03:27.130Z,98.97
2023-02-13T11:04:30.237Z,98.98
2023-02-13T11:05:43.397Z,98.88
2023-02-13T11:06:54.896Z,98.72
2023-02-13T11:07:58.038Z,98.88
2023-02-13T11:09:00.899Z,98.78
2023-02-13T11:10:29.598Z,98.66
2023-02-13T11:11:33.912Z,98.53
2023-02-13T11:12:36.911Z,98.27
2023-02-13T11:13:40.864Z,98.17
2023-02-13T11:14:55.990Z,98.27
2023-02-13T11:16:17.190Z,98.35
2023-02-13T11:17:20.210Z,98.23
2023-02-13T11:18:26.506Z,98.31
2023-02-13T11:19:34.524Z,98.12
2023-02-13T11:20:44.633Z,98.12
2023-02-13T11:21:50.106Z,98.10
2023-02-13T11:22:53.296Z,98.11
2023-02-13T11:23:58.872Z,98.24
2023-02-13T11:25:30.237Z,98.31
2023-02-13T11:26:36.081Z,98.29
2023-02-13T11:27:40.392Z,98.40
2023-02-13T11:29:02.139Z,98.43
2023-02-13T11:30:33.580Z,98.34
2023-02-13T11:31:38.297Z,98.20
2023-02-13T11:32:41.221Z,98.20
2023-02-13T11:33:44.100Z,98.17
2023-02-13T11:34:50.568Z,98.24
2023-02-13T11:36:09.420Z,98.10
2023-02-13T11:37:12.276Z,98.19
2023-02-13T11:38:20.929Z,98.14
2023-02-13T11:39:26.792Z,98.11
2023-02-13T11:40:32.447Z,98.26
2023-02-13T11:41:43.980Z,98.47
2023-02-13T11:42:50.105Z,98.38
2023-02-13T11:44:02.327Z,98.32
2023-02-13T11:45:20.565Z,98.33
2023-02-13T11:46:26.751Z,98.35
2023-02-13T11:47:36.154Z,98.37
2023-02-13T11:48:39.110Z,98.36
2023-02-13T11:49:47.380Z,98.45
2023-02-13T11:50:56.186Z,98.28
2023-02-13T11:52:05.390Z,98.37
2023-02-13T11:53:22.804Z,98.04
2023-02-13T11:54:28.426Z,97.99
2023-02-13T11:55:34.861Z,97.97
2023-02-13T11:57:06.365Z,98.15
2023-02-13T11:58:12.482Z,98.31
2023-02-13T11:59:16.238Z,98.31
2023-02-13T12:00:32.473Z,98.26
2023-02-13T12:01:35.335Z,98.29
2023-02-13T12:02:48.445Z,98.29
2023-02-13T12:04:19.202Z,98.04
2023-02-13T12:05:24.671Z,97.99
2023-02-13T12:06:27.588Z,98.10
2023-02-13T12:07:32.499Z,97.97
2023-02-13T12:08:37.799Z,98.15
2023-02-13T12:09:42.100Z,98.12
2023-02-13T12:10:45.584Z,97.75
2023-02-13T12:11:53.929Z,97.56
2023-02-13T12:13:15.722Z,97.55
2023-02-13T12:14:26.450Z,97.23
2023-02-13T12:15:33.049Z,97.23
2023-02-13T12:16:44.039Z,97.25
2023-02-13T12:17:57.201Z,97.35
2023-02-13T12:19:06.319Z,97.40
2023-02-13T12:20:16.066Z,97.28
2023-02-13T12:21:44.784Z,97.27
2023-02-13T12:23:10.765Z,97.23
2023-02-13T12:24:19.953Z,97.29
2023-02-13T12:25:27.174Z,97.47
2023-02-13T12:26:37.180Z,97.33
2023-02-13T12:27:50.617Z,97.31
2023-02-13T12:29:08.257Z,97.26
2023-02-13T12:30:42.815Z,97.33
2023-02-13T12:32:05.213Z,97.35
2023-02-13T12:33:41.919Z,97.45
2023-02-13T12:35:19.848Z,97.31
2023-02-13T12:36:40.280Z,97.17
2023-02-13T12:38:12.976Z,97.22
2023-02-13T12:39:26.506Z,97.17
2023-02-13T12:40:48.338Z,97.23
2023-02-13T12:42:48.110Z,97.40
2023-02-13T12:44:21.259Z,97.37
2023-02-13T12:45:41.498Z,97.21
2023-02-13T12:46:50.322Z,97.12
2023-02-13T12:48:11.639Z,97.11
2023-02-13T12:49:32.512Z,96.89
2023-02-13T12:50:51.475Z,96.63
2023-02-13T12:52:16.277Z,96.68
2023-02-13T12:53:32.090Z,96.48
2023-02-13T12:54:35.352Z,96.55
2023-02-13T12:56:18.910Z,96.52
2023-02-13T12:57:37.560Z,96.39
2023-02-13T12:59:31.684Z,96.30
2023-02-13T13:00:37.667Z,96.14
2023-02-13T13:02:03.595Z,96.19
2023-02-13T13:03:28.041Z,96.05
2023-02-13T13:04:49.155Z,96.14
2023-02-13T13:06:10.883Z,96.05
2023-02-13T13:07:41.718Z,95.99
2023-02-13T13:09:05.960Z,95.87
2023-02-13T13:10:26.885Z,95.92
2023-02-13T13:11:35.500Z,95.93
2023-02-13T13:13:03.240Z,95.82
2023-02-13T13:14:21.095Z,95.65
2023-02-13T13:15:45.556Z,95.98
2023-02-13T13:17:07.561Z,96.11
2023-02-13T13:18:53.522Z,96.11
2023-02-13T13:20:14.548Z,96.23
2023-02-13T13:21:33.007Z,96.11
2023-02-13T13:22:47.138Z,96.17
2023-02-13T13:24:13.861Z,96.11
2023-02-13T13:25:25.928Z,96.23
2023-02-13T13:26:41.099Z,96.21
2023-02-13T13:27:48.140Z,96.06
2023-02-13T13:28:55.669Z,96.15
2023-02-13T13:30:13.567Z,95.98
2023-02-13T13:31:17.088Z,95.91
2023-02-13T13:32:21.975Z,95.89
2023-02-13T13:33:28.340Z,95.88
2023-02-13T13:34:34.493Z,96.09
2023-02-13T13:35:42.528Z,95.95
2023-02-13T13:36:54.709Z,95.95
2023-02-13T13:38:12.938Z,96.03
2023-02-13T13:39:36.560Z,95.89
2023-02-13T13:40:43.296Z,95.99
2023-02-13T13:41:56.465Z,96.03
2023-02-13T13:43:41.336Z,95.98
2023-02-13T13:44:50.572Z,96.01
2023-02-13T13:46:11.131Z,96.06
2023-02-13T13:47:39.941Z,96.02
2023-02-13T13:49:11.999Z,96.15
2023-02-13T13:50:24.555Z,95.97
2023-02-13T13:51:27.662Z,96.09
2023-02-13T13:52:34.206Z,96.15
2023-02-13T13:53:59.588Z,96.35
2023-02-13T13:55:04.834Z,96.27
2023-02-13T13:56:10.584Z,96.10
2023-02-13T13:57:13.642Z,96.16
2023-02-13T13:58:36.114Z,96.20
2023-02-13T13:59:38.934Z,96.19
2023-02-13T14:00:41.803Z,96.05
2023-02-13T14:01:44.708Z,96.07
2023-02-13T14:03:11.705Z,96.06
2023-02-13T14:04:32.937Z,96.00
2023-02-13T14:06:04.808Z,95.91
2023-02-13T14:07:23.731Z,96.00
2023-02-13T14:08:41.720Z,95.95
2023-02-13T14:09:44.881Z,96.01
2023-02-13T14:10:50.587Z,95.74
2023-02-13T14:11:55.406Z,95.90
2023-02-13T14:12:58.331Z,95.81
2023-02-13T14:14:02.623Z,95.84
2023-02-13T14:15:05.884Z,95.68
2023-02-13T14:16:11.704Z,95.74
2023-02-13T14:17:16.371Z,95.66
2023-02-13T14:18:22.736Z,95.76
2023-02-13T14:19:39.726Z,95.69
2023-02-13T14:20:51.701Z,95.76
2023-02-13T14:21:55.584Z,95.64
2023-02-13T14:23:27.303Z,95.72
2023-02-13T14:24:31.497Z,95.86
2023-02-13T14:25:34.605Z,95.88
2023-02-13T14:26:39.804Z,95.73
2023-02-13T14:27:42.763Z,95.86
2023-02-13T14:28:48.718Z,95.84
2023-02-13T14:29:51.740Z,95.85
2023-02-13T14:31:09.173Z,95.88
2023-02-13T14:32:32.942Z,95.82
2023-02-13T14:33:35.980Z,95.87
2023-02-13T14:34:39.795Z,95.94
2023-02-13T14:35:42.760Z,95.98
2023-02-13T14:36:49.027Z,95.86
2023-02-13T14:37:56.597Z,96.00
2023-02-13T14:39:03.456Z,96.10
2023-02-13T14:40:20.333Z,96.15
2023-02-13T14:41:56.400Z,96.08
2023-02-13T14:43:38.029Z,95.98
2023-02-13T14:44:49.781Z,95.91
2023-02-13T14:46:30.139Z,96.10
2023-02-13T14:47:42.836Z,96.01
2023-02-13T14:49:02.891Z,95.96
2023-02-13T14:50:08.389Z,95.95
2023-02-13T14:51:35.432Z,96.03
2023-02-13T14:52:43.449Z,96.07
2023-02-13T14:53:56.452Z,95.94
2023-02-13T14:55:12.916Z,95.96
2023-02-13T14:56:19.401Z,95.96